createdAt,value
2023-04-12T00:01:20.819Z,6.50
2023-04-12T00:03:51.247Z,5.50
2023-04-12T00:06:28.956Z,5.30
2023-04-12T00:09:00.881Z,5.40
2023-04-12T00:11:33.794Z,4.10
2023-04-12T00:14:03.358Z,3.70
2023-04-12T00:16:32.997Z,4.40
2023-04-12T00:19:02.021Z,4.20
2023-04-12T00:21:31.424Z,4.40
2023-04-12T00:24:00.308Z,3.10
2023-04-12T00:26:29.457Z,3.50
2023-04-12T00:28:58.357Z,5.50
2023-04-12T00:31:27.816Z,4.70
2023-04-12T00:33:56.912Z,4.00
2023-04-12T00:36:29.781Z,4.10
2023-04-12T00:39:01.380Z,4.80
2023-04-12T00:41:32.488Z,4.30
2023-04-12T00:44:05.940Z,4.70
2023-04-12T00:46:39.021Z,5.90
2023-04-12T00:49:09.952Z,5.10
2023-04-12T00:51:40.327Z,3.90
2023-04-12T00:54:09.982Z,6.10
2023-04-12T00:56:40.711Z,4.00
2023-04-12T00:59:10.170Z,5.80
2023-04-12T01:01:41.712Z,4.80
2023-04-12T01:04:14.405Z,4.20
2023-04-12T01:07:08.238Z,4.10
2023-04-12T01:09:46.127Z,5.30
2023-04-12T01:12:25.412Z,6.20
2023-04-12T01:15:06.611Z,4.70
2023-04-12T01:17:58.580Z,4.50
2023-04-12T01:20:32.474Z,5.80
2023-04-12T01:23:15.501Z,4.90
2023-04-12T01:26:22.409Z,5.10
2023-04-12T01:28:55.115Z,4.40
2023-04-12T01:31:26.645Z,5.60
2023-04-12T01:33:59.209Z,4.50
2023-04-12T01:36:29.980Z,5.00
2023-04-12T01:38:59.040Z,4.30
2023-04-12T01:41:28.030Z,5.70
2023-04-12T01:43:56.950Z,4.30
2023-04-12T01:46:26.439Z,5.00
2023-04-12T01:48:55.461Z,4.90
2023-04-12T01:51:48.737Z,4.40
2023-04-12T01:54:25.447Z,4.60
2023-04-12T01:57:00.111Z,4.40
2023-04-12T01:59:41.874Z,3.10
2023-04-12T02:02:12.769Z,3.50
2023-04-12T02:04:43.750Z,5.10
2023-04-12T02:07:14.130Z,3.60
2023-04-12T02:09:43.048Z,4.40
2023-04-12T02:12:12.104Z,5.20
2023-04-12T02:14:41.289Z,3.40
2023-04-12T02:17:10.221Z,4.40
2023-04-12T02:19:39.612Z,4.80
2023-04-12T02:22:08.730Z,3.80
2023-04-12T02:24:37.524Z,3.50
2023-04-12T02:27:06.456Z,4.50
2023-04-12T02:29:35.243Z,5.00
2023-04-12T02:32:04.116Z,4.00
2023-04-12T02:34:34.810Z,4.10
2023-04-12T02:37:05.354Z,5.30
2023-04-12T02:39:34.948Z,5.00
2023-04-12T02:42:04.359Z,3.30
2023-04-12T02:44:33.770Z,4.80
2023-04-12T02:47:02.904Z,4.80
2023-04-12T02:49:31.803Z,3.90
2023-04-12T02:52:02.705Z,5.00
2023-04-12T02:54:31.550Z,6.90
2023-04-12T02:57:00.984Z,5.20
2023-04-12T02:59:32.219Z,5.00
2023-04-12T03:02:01.992Z,5.50
2023-04-12T03:04:31.488Z,5.10
2023-04-12T03:07:00.471Z,6.40
2023-04-12T03:09:29.363Z,5.10
2023-04-12T03:11:58.600Z,6.50
2023-04-12T03:14:27.453Z,5.00
2023-04-12T03:16:56.970Z,4.70
2023-04-12T03:19:26.171Z,4.30
2023-04-12T03:21:55.363Z,4.10
2023-04-12T03:24:24.523Z,4.60
2023-04-12T03:26:53.446Z,4.20
2023-04-12T03:29:26.884Z,4.40
2023-04-12T03:31:58.594Z,4.70
2023-04-12T03:34:32.535Z,5.70
2023-04-12T03:37:04.714Z,3.50
2023-04-12T03:39:33.565Z,5.20
2023-04-12T03:42:02.907Z,4.30
2023-04-12T03:44:33.128Z,3.60
2023-04-12T03:47:01.989Z,3.90
2023-04-12T03:49:31.060Z,4.80
2023-04-12T03:52:00.038Z,5.00
2023-04-12T03:54:28.975Z,4.00
2023-04-12T03:56:58.041Z,3.50
2023-04-12T03:59:27.139Z,4.90
2023-04-12T04:02:00.591Z,5.20
2023-04-12T04:04:29.902Z,4.70
2023-04-12T04:06:58.904Z,5.80
2023-04-12T04:09:28.537Z,6.90
2023-04-12T04:11:57.431Z,4.90
2023-04-12T04:14:28.289Z,4.90
2023-04-12T04:16:57.316Z,5.00
2023-04-12T04:19:26.242Z,5.00
2023-04-12T04:21:56.711Z,5.90
2023-04-12T04:24:25.986Z,5.80
2023-04-12T04:26:55.125Z,5.90
2023-04-12T04:29:26.813Z,6.20
2023-04-12T04:31:56.370Z,6.60
2023-04-12T04:34:26.166Z,7.70
2023-04-12T04:36:55.295Z,5.80
2023-04-12T04:39:23.995Z,6.20
2023-04-12T04:41:55.235Z,7.50
2023-04-12T04:44:26.239Z,6.30
2023-04-12T04:46:55.048Z,6.50
2023-04-12T04:49:23.603Z,6.50
2023-04-12T04:51:53.111Z,4.90
2023-04-12T04:54:22.285Z,5.60
2023-04-12T04:56:51.379Z,6.10
2023-04-12T04:59:20.574Z,6.40
2023-04-12T05:01:49.918Z,6.70
2023-04-12T05:04:18.935Z,6.70
2023-04-12T05:06:47.765Z,10.70
2023-04-12T05:09:16.725Z,8.60
2023-04-12T05:11:45.657Z,8.30
2023-04-12T05:14:14.684Z,7.50
2023-04-12T05:16:43.688Z,8.70
2023-04-12T05:19:12.817Z,11.10
2023-04-12T05:21:41.479Z,23.80
2023-04-12T05:24:10.969Z,16.00
2023-04-12T05:26:39.852Z,23.30
2023-04-12T05:29:08.767Z,20.00
2023-04-12T05:31:37.876Z,28.40
2023-04-12T05:34:06.829Z,33.30
2023-04-12T05:36:35.923Z,41.00
2023-04-12T05:39:05.150Z,39.70
2023-04-12T05:41:34.452Z,32.80
2023-04-12T05:44:04.574Z,32.60
2023-04-12T05:46:34.201Z,33.80
2023-04-12T05:49:03.545Z,31.70
2023-04-12T05:51:41.031Z,34.80
2023-04-12T05:54:11.330Z,29.20
2023-04-12T05:56:40.561Z,28.10
2023-04-12T05:59:11.405Z,30.80
2023-04-12T06:01:43.419Z,20.20
2023-04-12T06:04:12.814Z,29.30
2023-04-12T06:06:42.002Z,23.30
2023-04-12T06:09:11.780Z,31.60
2023-04-12T06:11:40.709Z,16.30
2023-04-12T06:14:11.829Z,16.00
2023-04-12T06:16:42.000Z,20.80
2023-04-12T06:19:11.765Z,15.60
2023-04-12T06:21:41.552Z,22.60
2023-04-12T06:24:10.924Z,13.30
2023-04-12T06:26:40.423Z,10.80
2023-04-12T06:29:09.633Z,9.20
2023-04-12T06:31:38.658Z,8.80
2023-04-12T06:34:07.815Z,8.60
2023-04-12T06:36:37.340Z,9.20
2023-04-12T06:39:07.414Z,11.20
2023-04-12T06:41:36.606Z,11.10
2023-04-12T06:44:05.814Z,12.20
2023-04-12T06:46:34.775Z,11.70
2023-04-12T06:49:04.466Z,10.60
2023-04-12T06:51:36.004Z,11.00
2023-04-12T06:54:05.111Z,9.90
2023-04-12T06:56:37.506Z,9.20
2023-04-12T06:59:07.117Z,9.00
2023-04-12T07:01:36.137Z,8.00
2023-04-12T07:04:06.003Z,8.30
2023-04-12T07:06:35.403Z,9.00
2023-04-12T07:09:04.950Z,8.20
2023-04-12T07:11:34.042Z,8.80
2023-04-12T07:14:03.262Z,6.60
2023-04-12T07:16:33.162Z,9.20
2023-04-12T07:19:02.758Z,17.00
2023-04-12T07:21:32.353Z,6.60
2023-04-12T07:24:02.195Z,5.40
2023-04-12T07:26:31.883Z,3.80
2023-04-12T07:29:02.400Z,3.80
2023-04-12T07:31:32.127Z,3.40
2023-04-12T07:34:01.861Z,9.20
2023-04-12T07:36:32.036Z,3.80
2023-04-12T07:39:01.088Z,4.30
2023-04-12T07:41:30.581Z,4.40
2023-04-12T07:43:59.917Z,4.00
2023-04-12T07:46:29.063Z,3.80
2023-04-12T07:48:58.932Z,3.70
2023-04-12T07:51:28.985Z,4.00
2023-04-12T07:53:59.512Z,3.70
2023-04-12T07:56:35.780Z,4.20
2023-04-12T07:59:05.216Z,3.40
2023-04-12T08:01:34.308Z,3.10
2023-04-12T08:04:04.324Z,3.30
2023-04-12T08:06:34.664Z,3.40
2023-04-12T08:09:05.099Z,3.10
2023-04-12T08:11:36.072Z,2.60
2023-04-12T08:14:05.817Z,2.30
2023-04-12T08:16:35.291Z,3.20
2023-04-12T08:19:04.879Z,2.80
2023-04-12T08:21:34.236Z,31.90
2023-04-12T08:24:03.560Z,3.40
2023-04-12T08:26:32.427Z,2.30
2023-04-12T08:29:03.377Z,3.90
2023-04-12T08:31:34.139Z,3.10
2023-04-12T08:34:03.635Z,22.60
2023-04-12T08:36:33.436Z,6.60
2023-04-12T08:39:03.294Z,25.80
2023-04-12T08:41:37.029Z,22.30
2023-04-12T08:44:08.098Z,2.90
2023-04-12T08:46:38.127Z,13.30
2023-04-12T08:49:08.756Z,19.70
2023-04-12T08:51:39.726Z,3.10
2023-04-12T08:54:09.094Z,3.30
2023-04-12T08:56:39.018Z,20.10
2023-04-12T08:59:08.646Z,14.80
2023-04-12T09:01:42.894Z,9.40
2023-04-12T09:04:13.720Z,2.40
2023-04-12T09:06:43.672Z,1.90
2023-04-12T09:09:12.550Z,2.40
2023-04-12T09:11:41.799Z,2.10
2023-04-12T09:14:25.493Z,2.70
2023-04-12T09:16:56.051Z,3.30
2023-04-12T09:19:37.269Z,2.20
2023-04-12T09:22:06.951Z,3.10
2023-04-12T09:24:48.922Z,3.50
2023-04-12T09:27:22.822Z,2.30
2023-04-12T09:29:53.100Z,2.50
2023-04-12T09:32:29.678Z,4.10
2023-04-12T09:35:01.845Z,2.90
2023-04-12T09:37:32.124Z,3.10
2023-04-12T09:40:09.980Z,3.30
2023-04-12T09:42:53.842Z,5.90
2023-04-12T09:45:26.250Z,3.40
2023-04-12T09:47:57.443Z,3.50
2023-04-12T09:50:29.625Z,2.00
2023-04-12T09:53:00.312Z,2.90
2023-04-12T09:55:32.632Z,2.50
2023-04-12T09:58:05.350Z,3.00
2023-04-12T10:00:34.936Z,3.10
2023-04-12T10:03:05.163Z,2.90
2023-04-12T10:05:34.633Z,3.30
2023-04-12T10:08:03.628Z,3.50
2023-04-12T10:10:33.519Z,2.60
2023-04-12T10:13:03.648Z,3.50
2023-04-12T10:15:34.739Z,4.30
2023-04-12T10:18:05.783Z,2.90
2023-04-12T10:20:35.677Z,3.20
2023-04-12T10:23:07.498Z,3.00
2023-04-12T10:25:43.075Z,2.80
2023-04-12T10:28:22.265Z,4.10
2023-04-12T10:30:53.826Z,3.00
2023-04-12T10:33:28.673Z,2.70
2023-04-12T10:35:58.563Z,4.20
2023-04-12T10:38:33.770Z,4.80
2023-04-12T10:41:19.580Z,3.30
2023-04-12T10:43:50.804Z,3.10
2023-04-12T10:46:40.026Z,2.20
2023-04-12T10:49:10.878Z,4.10
2023-04-12T10:51:41.193Z,4.20
2023-04-12T10:54:17.802Z,4.10
2023-04-12T10:56:48.093Z,2.70
2023-04-12T10:59:17.415Z,3.50
2023-04-12T11:02:05.645Z,3.40
2023-04-12T11:04:36.601Z,3.00
2023-04-12T11:07:12.377Z,3.90
2023-04-12T11:09:43.867Z,2.90
2023-04-12T11:12:17.210Z,4.70
2023-04-12T11:14:50.128Z,4.70
2023-04-12T11:17:19.125Z,3.80
2023-04-12T11:20:00.019Z,3.90
2023-04-12T11:22:31.700Z,2.60
2023-04-12T11:25:03.416Z,2.90
2023-04-12T11:27:32.805Z,3.00
2023-04-12T11:30:02.419Z,2.20
2023-04-12T11:32:32.684Z,3.20
2023-04-12T11:35:02.678Z,4.90
2023-04-12T11:37:32.375Z,3.70
2023-04-12T11:40:01.381Z,3.10
2023-04-12T11:42:30.157Z,2.60
2023-04-12T11:45:04.777Z,3.40
2023-04-12T11:47:36.256Z,2.10
2023-04-12T11:50:06.842Z,3.70
2023-04-12T11:52:36.193Z,2.30
2023-04-12T11:55:11.505Z,3.20
2023-04-12T11:57:40.358Z,2.90
2023-04-12T12:00:10.786Z,2.60
2023-04-12T12:02:48.866Z,3.10
2023-04-12T12:05:23.557Z,3.00
2023-04-12T12:07:54.616Z,3.30
2023-04-12T12:10:41.720Z,3.10
2023-04-12T12:13:14.461Z,2.40
2023-04-12T12:15:48.037Z,4.70
2023-04-12T12:18:17.369Z,2.40
2023-04-12T12:20:51.033Z,3.30
2023-04-12T12:23:33.737Z,3.90
2023-04-12T12:26:19.107Z,6.40
2023-04-12T12:28:55.191Z,3.60
2023-04-12T12:31:27.622Z,2.50
2023-04-12T12:34:00.730Z,3.00
2023-04-12T12:36:33.029Z,3.10
2023-04-12T12:39:12.533Z,4.30
2023-04-12T12:41:42.821Z,2.50
2023-04-12T12:44:13.081Z,4.70
2023-04-12T12:49:16.718Z,3.30
2023-04-12T12:51:48.366Z,3.20
2023-04-12T12:54:32.133Z,3.40
2023-04-12T12:57:09.647Z,4.10
2023-04-12T12:59:38.855Z,3.00
2023-04-12T13:02:09.579Z,2.80
2023-04-12T13:04:40.264Z,2.40
2023-04-12T13:07:11.298Z,2.80
2023-04-12T13:09:41.097Z,2.70
2023-04-12T13:12:11.332Z,3.10
2023-04-12T13:14:42.210Z,2.50
2023-04-12T13:17:10.934Z,5.70
2023-04-12T13:19:41.465Z,3.70
2023-04-12T13:22:11.017Z,3.30
2023-04-12T13:24:40.258Z,2.90
2023-04-12T13:27:12.674Z,47.70
2023-04-12T13:29:44.801Z,2.60
2023-04-12T13:32:15.220Z,3.10
2023-04-12T13:34:44.605Z,3.00
2023-04-12T13:37:14.078Z,2.90
2023-04-12T13:39:45.514Z,3.70
2023-04-12T13:42:15.853Z,4.80
2023-04-12T13:44:45.904Z,51.90
2023-04-12T13:47:16.305Z,30.80
2023-04-12T13:49:46.018Z,5.50
2023-04-12T13:52:16.201Z,2.90
2023-04-12T13:54:45.713Z,3.90
2023-04-12T13:57:14.712Z,3.20
2023-04-12T13:59:44.468Z,3.50
2023-04-12T14:02:19.659Z,2.70
2023-04-12T14:04:55.570Z,4.10
2023-04-12T14:07:26.223Z,3.40
2023-04-12T14:09:56.739Z,4.00
2023-04-12T14:12:27.173Z,3.10
2023-04-12T14:14:57.014Z,3.90
2023-04-12T14:17:32.762Z,3.00
2023-04-12T14:20:03.011Z,3.20
2023-04-12T14:22:32.184Z,3.10
2023-04-12T14:25:02.074Z,3.20
2023-04-12T14:27:32.064Z,2.10
2023-04-12T14:30:02.399Z,2.60
2023-04-12T14:32:32.066Z,2.90
2023-04-12T14:35:01.670Z,2.40
2023-04-12T14:37:32.205Z,4.20
2023-04-12T14:40:01.457Z,3.00
2023-04-12T14:42:30.970Z,2.10
2023-04-12T14:45:02.008Z,2.80
2023-04-12T14:47:32.254Z,3.30
2023-04-12T14:50:02.466Z,3.10
2023-04-12T14:52:33.528Z,3.10
2023-04-12T14:55:05.614Z,2.60
2023-04-12T14:57:35.993Z,2.80
2023-04-12T15:00:13.636Z,4.30
2023-04-12T15:02:46.621Z,3.40
2023-04-12T15:05:17.313Z,2.90
2023-04-12T15:07:48.810Z,3.20
2023-04-12T15:10:19.561Z,4.70
2023-04-12T15:12:48.876Z,4.00
2023-04-12T15:15:18.077Z,4.80
2023-04-12T15:17:47.607Z,4.90
2023-04-12T15:20:18.772Z,3.30
2023-04-12T15:22:49.815Z,3.50
2023-04-12T15:25:19.359Z,4.30
2023-04-12T15:27:49.777Z,3.50
2023-04-12T15:30:19.200Z,5.00
2023-04-12T15:32:49.364Z,2.60
2023-04-12T15:35:26.559Z,4.10
2023-04-12T15:37:56.499Z,2.50
2023-04-12T15:40:26.344Z,3.10
2023-04-12T15:42:56.027Z,3.60
2023-04-12T15:45:24.956Z,3.60
2023-04-12T15:47:55.615Z,4.40
2023-04-12T15:50:24.881Z,3.00
2023-04-12T15:52:55.828Z,4.40
2023-04-12T15:55:26.005Z,4.20
2023-04-12T15:57:55.451Z,4.80
2023-04-12T16:00:26.980Z,5.00
2023-04-12T16:02:57.854Z,3.70
2023-04-12T16:05:27.865Z,2.90
2023-04-12T16:07:57.726Z,6.00
2023-04-12T16:10:27.304Z,3.40
2023-04-12T16:12:57.349Z,3.50
2023-04-12T16:15:26.501Z,4.90
2023-04-12T16:17:57.155Z,3.60
2023-04-12T16:20:25.952Z,4.30
2023-04-12T16:22:55.439Z,4.20
2023-04-12T16:25:26.680Z,4.40
2023-04-12T16:27:57.122Z,3.90
2023-04-12T16:30:27.002Z,5.10
2023-04-12T16:32:56.681Z,3.60
2023-04-12T16:35:26.378Z,5.40
2023-04-12T16:37:55.837Z,5.30
2023-04-12T16:40:24.938Z,3.90
2023-04-12T16:42:54.481Z,5.20
2023-04-12T16:45:24.482Z,5.80
2023-04-12T16:47:54.879Z,5.20
2023-04-12T16:50:26.592Z,5.40
2023-04-12T16:52:56.253Z,4.80
2023-04-12T16:55:25.876Z,4.50
2023-04-12T16:57:56.363Z,4.10
2023-04-12T17:00:30.271Z,5.00
2023-04-12T17:03:01.133Z,5.10
2023-04-12T17:05:31.657Z,5.90
2023-04-12T17:08:03.842Z,6.20
2023-04-12T17:10:33.838Z,5.00
2023-04-12T17:13:03.607Z,7.90
2023-04-12T17:15:32.586Z,4.90
2023-04-12T17:18:12.118Z,5.60
2023-04-12T17:20:41.617Z,7.20
2023-04-12T17:23:11.552Z,8.50
2023-04-12T17:25:42.331Z,5.70
2023-04-12T17:28:12.272Z,9.70
2023-04-12T17:30:41.794Z,6.70
2023-04-12T17:33:10.966Z,12.30
2023-04-12T17:35:41.185Z,5.80
2023-04-12T17:38:10.202Z,7.10
2023-04-12T17:40:39.392Z,11.30
2023-04-12T17:43:08.787Z,7.20
2023-04-12T17:45:37.868Z,5.40
2023-04-12T17:48:11.471Z,5.50
2023-04-12T17:50:42.083Z,5.40
2023-04-12T17:53:12.754Z,7.70
2023-04-12T17:55:42.690Z,6.70
2023-04-12T17:58:12.640Z,7.70
2023-04-12T18:00:43.730Z,5.90
2023-04-12T18:03:13.552Z,5.80
2023-04-12T18:05:43.421Z,6.30
2023-04-12T18:08:13.123Z,6.00
2023-04-12T18:10:42.517Z,7.90
2023-04-12T18:13:11.611Z,7.70
2023-04-12T18:15:40.599Z,7.70
2023-04-12T18:18:09.733Z,7.50
2023-04-12T18:20:39.204Z,6.00
2023-04-12T18:23:08.066Z,7.00
2023-04-12T18:25:39.065Z,13.60
2023-04-12T18:28:09.188Z,6.30
2023-04-12T18:30:38.397Z,9.60
2023-04-12T18:33:09.062Z,8.80
2023-04-12T18:35:41.903Z,10.90
2023-04-12T18:38:11.941Z,10.50
2023-04-12T18:40:41.482Z,7.40
2023-04-12T18:43:11.178Z,6.10
2023-04-12T18:45:41.610Z,5.40
2023-04-12T18:48:11.830Z,6.60
2023-04-12T18:50:41.198Z,5.10
2023-04-12T18:53:11.149Z,4.70
2023-04-12T18:55:40.274Z,5.00
2023-04-12T18:58:09.775Z,6.50
2023-04-12T19:00:39.299Z,5.90
2023-04-12T19:03:09.889Z,6.00
2023-04-12T19:05:41.525Z,5.90
2023-04-12T19:08:12.754Z,5.00
2023-04-12T19:10:43.453Z,6.90
2023-04-12T19:13:13.574Z,6.60
2023-04-12T19:15:44.772Z,6.60
2023-04-12T19:18:16.808Z,5.30
2023-04-12T19:20:47.717Z,5.40
2023-04-12T19:23:18.489Z,6.20
2023-04-12T19:25:50.529Z,7.20
2023-04-12T19:28:25.215Z,7.80
2023-04-12T19:31:00.177Z,5.50
2023-04-12T19:33:32.967Z,5.80
2023-04-12T19:36:07.173Z,5.50
2023-04-12T19:38:53.893Z,4.90
2023-04-12T19:41:26.648Z,6.30
2023-04-12T19:43:58.392Z,4.80
2023-04-12T19:46:29.980Z,6.00
2023-04-12T19:49:04.723Z,4.40
2023-04-12T19:51:48.439Z,4.20
2023-04-12T19:54:30.097Z,4.60
2023-04-12T19:57:05.885Z,3.80
2023-04-12T19:59:40.147Z,4.80
2023-04-12T20:02:22.232Z,5.90
2023-04-12T20:05:02.835Z,4.00
2023-04-12T20:07:36.882Z,4.70
2023-04-12T20:10:23.267Z,4.00
2023-04-12T20:12:56.163Z,4.80
2023-04-12T20:15:33.138Z,3.00
2023-04-12T20:18:09.007Z,5.30
2023-04-12T20:20:46.167Z,3.70
2023-04-12T20:23:22.802Z,12.40
2023-04-12T20:25:58.645Z,3.90
2023-04-12T20:28:39.490Z,4.30
2023-04-12T20:31:19.140Z,4.90
2023-04-12T20:33:59.329Z,5.20
2023-04-12T20:36:34.288Z,3.50
2023-04-12T20:39:07.515Z,4.10
2023-04-12T20:41:41.344Z,5.00
2023-04-12T20:44:19.442Z,4.50
2023-04-12T20:47:01.871Z,4.60
2023-04-12T20:49:41.642Z,5.70
2023-04-12T20:52:24.268Z,7.20
2023-04-12T20:55:02.447Z,4.50
2023-04-12T20:57:38.901Z,5.90
2023-04-12T21:00:19.414Z,4.60
2023-04-12T21:02:52.797Z,2.60
2023-04-12T21:05:24.242Z,3.50
2023-04-12T21:07:55.729Z,3.70
2023-04-12T21:10:30.755Z,4.80
2023-04-12T21:13:02.814Z,4.20
2023-04-12T21:15:35.873Z,4.60
2023-04-12T21:18:05.601Z,4.10
2023-04-12T21:20:35.109Z,4.00
2023-04-12T21:23:07.145Z,3.90
2023-04-12T21:25:36.415Z,5.00
2023-04-12T21:28:09.336Z,6.10
2023-04-12T21:30:43.061Z,3.80
2023-04-12T21:33:25.618Z,4.80
2023-04-12T21:35:56.723Z,5.40
2023-04-12T21:38:26.326Z,4.50
2023-04-12T21:40:58.030Z,5.70
2023-04-12T21:43:27.706Z,5.70
2023-04-12T21:45:56.958Z,4.80
2023-04-12T21:48:25.837Z,4.70
2023-04-12T21:50:55.672Z,4.70
2023-04-12T21:53:24.517Z,3.30
2023-04-12T21:55:53.696Z,4.20
2023-04-12T21:58:24.175Z,4.90
2023-04-12T22:00:53.996Z,3.30
2023-04-12T22:03:25.678Z,3.30
2023-04-12T22:06:04.075Z,4.40
2023-04-12T22:08:34.359Z,3.80
2023-04-12T22:11:03.833Z,3.70
2023-04-12T22:13:34.838Z,3.60
2023-04-12T22:16:04.656Z,4.10
2023-04-12T22:18:34.422Z,5.30
2023-04-12T22:21:04.566Z,5.30
2023-04-12T22:23:34.030Z,4.80
2023-04-12T22:26:08.334Z,3.80
2023-04-12T22:28:38.847Z,4.30
2023-04-12T22:31:11.354Z,3.50
2023-04-12T22:33:40.968Z,5.80
2023-04-12T22:36:10.578Z,4.00
2023-04-12T22:38:39.473Z,3.90
2023-04-12T22:41:08.478Z,4.20
2023-04-12T22:43:43.196Z,4.60
2023-04-12T22:46:18.446Z,4.00
2023-04-12T22:48:48.253Z,3.80
2023-04-12T22:51:17.289Z,3.80
2023-04-12T22:53:46.623Z,5.20
2023-04-12T22:56:15.503Z,6.30
2023-04-12T22:58:44.636Z,5.80
2023-04-12T23:01:16.213Z,4.70
2023-04-12T23:03:49.900Z,5.30
2023-04-12T23:06:23.357Z,5.70
2023-04-12T23:08:58.814Z,5.10
2023-04-12T23:11:30.861Z,5.10
2023-04-12T23:14:02.171Z,4.70
2023-04-12T23:16:34.426Z,5.40
2023-04-12T23:19:07.239Z,5.60
2023-04-12T23:21:36.652Z,4.60
2023-04-12T23:24:06.691Z,5.50
2023-04-12T23:26:36.379Z,5.20
2023-04-12T23:29:06.596Z,5.30
2023-04-12T23:31:35.349Z,4.20
2023-04-12T23:34:06.923Z,5.40
2023-04-12T23:36:37.168Z,4.60
2023-04-12T23:39:09.645Z,4.40
2023-04-12T23:41:41.048Z,5.10
2023-04-12T23:44:13.788Z,5.60
2023-04-12T23:46:46.254Z,6.20
2023-04-12T23:49:20.434Z,6.10
2023-04-12T23:51:51.360Z,6.20
2023-04-12T23:54:22.849Z,5.00
2023-04-12T23:56:53.296Z,5.00
2023-04-12T23:59:23.074Z,4.70
